Latest Weather Observations for Norseman Airport

IDW60801

Issued at 10:32 am WST Saturday 6 February 2016 (issued every 30 minutes, with the page automatically refreshed every 10 minutes)

About weather observations | Map of weather stations | Latest weather observations for WA | Other Formats
Station Details ID: 012009 Name: NORSEMAN AERO Lat: -32.21 Lon: 121.75 Height: 262.5 m
Data from the previous 72 hours. | See also: Recent months at Norseman Airport
Date/Time
WST
Temp
°C
App
Temp
°C
Dew
Point
Rel
Hum
%
Delta-T
°C
Wind Press
QNH
hPa
Press
MSL
hPa
Rain
since 9 am
mm
Dir
 
Spd
km/h
Gust
km/h
Spd
kts
Gust
kts
06/10:30am 28.3 25.6 9.1 30 10.7 N 13 20 7 11 1017.3 1016.0 0.0
06/10:00am 26.6 24.2 9.9 35 9.4 NNE 13 20 7 11 1017.5 1016.2 0.0
06/09:30am 25.8 23.0 11.2 40 8.3 NNE 17 22 9 12 1017.8 1016.5 0.0
06/09:00am 24.1 21.6 11.1 44 7.3 N 15 20 8 11 1017.8 1016.5 0.0
06/08:30am 22.9 20.2 11.6 49 6.4 N 17 20 9 11 1017.8 1016.5 0.0
06/08:00am 21.8 18.9 12.4 55 5.4 N 19 24 10 13 1017.8 1016.5 0.0
06/07:30am 20.4 17.3 12.1 59 4.7 N 20 24 11 13 1017.7 1016.4 0.0
06/07:00am 19.4 16.2 11.9 62 4.2 NNE 20 24 11 13 1017.7 1016.4 0.0
06/06:30am 18.5 15.8 11.6 64 3.8 NE 17 20 9 11 1017.3 1016.0 0.0
06/06:00am 17.4 15.3 11.2 67 3.4 NE 13 17 7 9 1017.0 1015.7 0.0
06/05:30am 16.4 14.2 10.7 69 3.1 NE 13 17 7 9 1016.7 1015.4 0.0
06/05:00am 16.1 13.7 10.2 68 3.1 NE 13 17 7 9 1016.4 1015.1 0.0
06/04:30am 15.8 13.2 9.5 66 3.3 NE 13 15 7 8 1016.1 1014.8 0.0
06/04:00am 15.8 13.9 9.2 65 3.4 NE 9 11 5 6 1016.0 1014.7 0.0
06/03:30am 16.3 14.4 9.0 62 3.8 NE 9 11 5 6 1015.8 1014.5 0.0
06/03:00am 17.2 15.3 8.9 58 4.3 NE 9 11 5 6 1015.8 1014.5 0.0
06/02:30am 17.9 15.5 8.5 54 4.9 NE 11 13 6 7 1015.8 1014.5 0.0
06/02:00am 17.8 15.5 7.5 51 5.3 NE 9 13 5 7 1015.7 1014.4 0.0
06/01:30am 18.1 15.4 7.5 50 5.4 NE 11 13 6 7 1015.6 1014.3 0.0
06/01:00am 18.9 17.0 7.7 48 5.8 ENE 7 11 4 6 1015.8 1014.5 0.0
06/12:30am 20.4 17.6 7.1 42 6.9 E 11 13 6 7 1015.8 1014.5 0.0
06/12:00am 21.7 19.7 7.2 39 7.5 ENE 7 13 4 7 1015.9 1014.6 0.0
 
Date/Time
WST
Temp
°C
App
Temp
°C
Dew
Point
Rel
Hum
%
Delta-T
°C
Wind Press
QNH
hPa
Press
MSL
hPa
Rain
since 9 am
mm
Dir
 
Spd
km/h
Gust
km/h
Spd
kts
Gust
kts
05/11:30pm 22.2 19.4 6.8 37 8.0 ENE 11 15 6 8 1015.8 1014.5 0.0
05/11:00pm 23.0 20.1 6.7 35 8.5 E 11 17 6 9 1015.9 1014.6 0.0
05/10:30pm 21.8 19.4 7.2 39 7.6 E 9 13 5 7 1015.8 1014.5 0.0
05/10:00pm 23.0 21.2 7.1 36 8.3 NE 6 7 3 4 1015.9 1014.6 0.0
05/09:30pm 23.7 21.4 7.3 35 8.7 E 9 13 5 7 1015.9 1014.6 0.0
05/09:00pm 23.4 21.3 8.3 38 8.1 ESE 9 15 5 8 1015.7 1014.4 0.0
05/08:30pm 24.1 21.7 8.5 37 8.4 SE 11 15 6 8 1015.5 1014.2 0.0
05/08:00pm 24.9 22.9 8.8 36 8.8 SE 9 13 5 7 1015.3 1013.9 0.0
05/07:30pm 26.4 24.3 8.4 32 9.8 SSE 9 9 5 5 1014.9 1013.6 0.0
05/07:00pm 28.4 26.3 8.1 28 11.2 SE 9 11 5 6 1014.7 1013.4 0.0
05/06:30pm 30.2 28.3 7.4 24 12.5 SSE 7 13 4 7 1014.4 1013.1 0.0
05/06:00pm 31.2 30.6 8.8 25 12.6 N 2 6 1 3 1014.2 1012.9 0.0
05/05:30pm 31.0 29.4 8.7 25 12.5 WNW 7 19 4 10 1014.1 1012.8 0.0
05/05:00pm 31.3 29.9 8.9 25 12.7 WSW 6 13 3 7 1014.0 1012.7 0.0
05/04:30pm 31.3 28.6 8.9 25 12.7 NW 13 20 7 11 1014.2 1012.9 0.0
05/04:00pm 30.0 27.3 9.0 27 11.8 SSW 13 19 7 10 1014.4 1013.1 0.0
05/03:30pm 30.2 28.3 9.1 27 11.9 W 9 15 5 8 1014.5 1013.2 0.0
05/03:00pm 30.1 28.3 9.6 28 11.6 NW 9 17 5 9 1014.7 1013.4 0.0
05/02:30pm 29.7 26.5 9.8 29 11.3 NNE 17 24 9 13 1014.9 1013.6 0.0
05/02:00pm 29.2 26.8 9.9 30 11.0 NNW 13 20 7 11 1015.4 1014.1 0.0
05/01:30pm 28.1 25.3 9.9 32 10.3 N 15 26 8 14 1015.8 1014.5 0.0
05/01:00pm 27.2 24.5 10.4 35 9.5 NNW 15 26 8 14 1016.2 1014.9 0.0
05/12:30pm 27.4 24.4 10.6 35 9.6 N 17 28 9 15 1016.7 1015.4 0.0
05/12:00pm 26.4 23.4 10.5 37 9.0 NW 17 32 9 17 1017.2 1015.9 0.0
05/11:30am 25.7 23.4 10.3 38 8.7 NNE 13 28 7 15 1017.8 1016.5 0.0
05/11:00am 25.2 21.8 10.6 40 8.2 NNE 19 30 10 16 1018.4 1017.1 0.0
05/10:30am 24.1 21.6 11.1 44 7.4 NNW 15 24 8 13 1018.9 1017.7 0.0
05/10:00am 23.5 20.3 11.2 46 6.9 N 19 26 10 14 1019.3 1018.0 0.0
05/09:30am 22.6 19.3 11.7 50 6.2 N 20 28 11 15 1019.5 1018.2 0.0
05/09:00am 21.1 19.3 12.0 56 5.1 NNE 13 20 7 11 1019.8 1018.5 0.0
05/08:30am 20.5 17.4 12.2 59 4.7 NNE 20 28 11 15 1019.9 1018.6 0.0
05/08:00am 19.6 16.2 12.6 64 4.0 NNE 22 30 12 16 1020.1 1018.8 0.0
05/07:30am 18.5 16.8 12.3 67 3.5 NE 13 19 7 10 1020.3 1019.0 0.0
05/07:00am 17.3 14.8 12.4 73 2.7 NE 17 22 9 12 1020.2 1018.9 0.0
05/06:30am 16.2 14.0 12.0 76 2.3 NE 15 20 8 11 1020.0 1018.7 0.0
05/06:00am 15.4 13.9 11.8 79 2.0 NE 11 17 6 9 1019.9 1018.6 0.0
05/05:30am 14.8 12.8 11.6 81 1.7 NE 13 19 7 10 1019.7 1018.4 0.0
05/05:00am 14.9 12.8 11.3 79 1.9 NE 13 17 7 9 1019.5 1018.2 0.0
05/04:30am 15.2 13.1 11.2 77 2.2 NE 13 17 7 9 1019.2 1017.9 0.0
05/04:00am 15.7 13.6 11.3 75 2.4 NNE 13 17 7 9 1019.2 1017.9 0.0
05/03:30am 15.8 14.1 11.2 74 2.5 NE 11 17 6 9 1019.2 1017.9 0.0
05/03:00am 16.4 14.4 11.6 73 2.6 NNE 13 17 7 9 1019.3 1018.0 0.0
05/02:30am 16.8 15.2 11.7 72 2.8 NE 11 17 6 9 1019.0 1017.8 0.0
05/02:00am 17.1 15.5 11.6 70 3.0 NE 11 17 6 9 1019.2 1017.9 0.0
05/01:30am 17.8 15.2 12.0 69 3.2 ENE 17 26 9 14 1019.3 1018.0 0.0
05/01:00am 18.2 15.6 12.0 67 3.5 ENE 17 24 9 13 1019.2 1017.9 0.0
05/12:30am 18.8 15.8 12.1 65 3.8 ENE 19 24 10 13 1019.5 1018.2 0.0
05/12:00am 19.1 16.8 11.7 62 4.1 ENE 15 24 8 13 1019.7 1018.4 0.0
 
Date/Time
WST
Temp
°C
App
Temp
°C
Dew
Point
Rel
Hum
%
Delta-T
°C
Wind Press
QNH
hPa
Press
MSL
hPa
Rain
since 9 am
mm
Dir
 
Spd
km/h
Gust
km/h
Spd
kts
Gust
kts
04/11:30pm 19.7 16.9 11.5 59 4.6 ENE 17 28 9 15 1019.7 1018.4 0.0
04/11:00pm 20.4 17.4 10.5 53 5.4 E 17 26 9 14 1019.8 1018.5 0.0
04/10:30pm 21.4 18.0 9.3 46 6.5 ENE 17 28 9 15 1019.5 1018.2 0.0
04/10:00pm 21.9 18.1 9.1 44 6.9 ENE 19 28 10 15 1019.5 1018.2 0.0
04/09:30pm 22.2 18.5 8.0 40 7.5 E 17 24 9 13 1019.5 1018.2 0.0
04/09:00pm 22.9 19.5 7.8 38 8.0 E 15 22 8 12 1019.4 1018.1 0.0
04/08:30pm 23.4 20.1 7.9 37 8.3 E 15 22 8 12 1019.2 1017.9 0.0
04/08:00pm 24.0 21.0 7.6 35 8.7 ESE 13 17 7 9 1019.0 1017.8 0.0
04/07:30pm 24.7 22.3 6.9 32 9.4 ESE 9 13 5 7 1018.8 1017.6 0.0
04/07:00pm 25.9 22.4 7.0 30 10.0 ESE 15 20 8 11 1018.6 1017.3 0.0
04/06:30pm 27.0 23.1 6.9 28 10.7 ESE 17 24 9 13 1018.2 1016.9 0.0
04/06:00pm 28.0 24.8 6.7 26 11.4 E 13 20 7 11 1017.9 1016.6 0.0
04/05:30pm 28.5 24.5 6.6 25 11.7 ESE 17 24 9 13 1017.6 1016.3 0.0
04/05:00pm 29.0 25.8 7.0 25 11.9 E 13 20 7 11 1017.6 1016.3 0.0
04/04:30pm 28.8 24.3 6.2 24 12.1 NE 19 24 10 13 1017.7 1016.4 0.0
04/04:00pm 28.6 24.7 7.2 26 11.6 ESE 17 33 9 18 1017.9 1016.6 0.0
04/03:30pm 28.4 24.5 7.1 26 11.5 ESE 17 24 9 13 1018.2 1016.9 0.0
04/03:00pm 28.5 25.0 7.1 26 11.6 ENE 15 26 8 14 1018.5 1017.2 0.0
04/02:30pm 27.9 25.0 8.2 29 10.8 ESE 13 24 7 13 1018.9 1017.7 0.0
04/02:00pm 27.5 24.2 6.3 26 11.2 NE 13 28 7 15 1019.6 1018.3 0.0
04/01:30pm 27.2 23.9 8.1 30 10.4 ENE 15 30 8 16 1019.9 1018.6 0.0
04/01:00pm 26.3 23.1 8.3 32 9.8 ENE 15 26 8 14 1020.4 1019.1 0.0
04/12:30pm 24.9 21.9 7.5 33 9.3 E 13 22 7 12 1021.1 1019.8 0.0
04/12:00pm 24.3 20.7 8.3 36 8.6 ENE 17 30 9 16 1021.5 1020.2 0.0
04/11:30am 24.9 21.0 9.6 38 8.5 ENE 20 28 11 15 1022.0 1020.7 0.0
04/11:00am 23.5 20.9 9.5 41 7.7 ENE 13 24 7 13 1022.6 1021.4 0.0
04/10:30am 22.3 18.7 9.8 45 6.9 NE 19 28 10 15 1023.0 1021.8 0.0
04/10:00am 21.5 18.1 9.1 45 6.7 NE 17 26 9 14 1023.4 1022.1 0.0
04/09:30am 21.1 17.8 9.4 47 6.3 E 17 22 9 12 1023.8 1022.5 0.0
04/09:00am 19.5 15.8 10.0 54 5.1 ENE 20 30 11 16 1024.0 1022.7 0.0
04/08:30am 18.8 15.5 9.6 55 4.9 ENE 17 26 9 14 1024.3 1023.0 0.0
04/08:00am 18.0 14.1 10.9 63 3.9 ENE 22 32 12 17 1024.3 1023.0 0.0
04/07:30am 17.3 14.6 11.6 69 3.1 ENE 17 26 9 14 1024.4 1023.1 0.0
04/07:00am 16.3 13.5 11.5 73 2.6 ENE 17 26 9 14 1024.4 1023.1 0.0
04/06:30am 14.8 12.7 11.2 79 1.9 E 13 19 7 10 1023.9 1022.6 0.0
04/06:00am 13.7 12.7 11.0 84 1.4 ENE 7 11 4 6 1023.7 1022.4 0.0
04/05:30am 12.7 11.4 10.1 84 1.4 ENE 7 9 4 5 1023.6 1022.3 0.0
04/05:00am 13.4 11.5 10.4 82 1.6 ENE 11 15 6 8 1023.3 1022.0 0.0
04/04:30am 13.7 11.4 10.5 81 1.7 ENE 13 17 7 9 1023.0 1021.8 0.0
04/04:00am 13.6 12.0 10.2 80 1.8 ENE 9 13 5 7 1023.0 1021.8 0.0
04/03:30am 13.8 12.1 10.0 78 2.0 ENE 9 13 5 7 1022.9 1021.7 0.0
04/03:00am 13.9 12.2 9.7 76 2.2 ENE 9 11 5 6 1022.7 1021.5 0.0
04/02:30am 14.1 12.9 9.5 74 2.4 ENE 6 9 3 5 1022.7 1021.5 0.0
04/02:00am 14.7 13.3 9.7 72 2.6 ENE 7 9 4 5 1022.6 1021.4 0.0
04/01:30am 15.4 14.6 9.7 69 3.0 ESE 4 9 2 5 1022.4 1021.2 0.0
04/01:00am 15.9 13.9 10.0 68 3.1 E 11 17 6 9 1022.3 1021.1 0.0
04/12:30am 16.4 14.0 10.0 66 3.4 E 13 19 7 10 1022.2 1021.0 0.0
04/12:00am 17.0 13.8 9.9 63 3.8 E 17 22 9 12 1022.2 1021.0 0.0
 
Date/Time
WST
Temp
°C
App
Temp
°C
Dew
Point
Rel
Hum
%
Delta-T
°C
Wind Press
QNH
hPa
Press
MSL
hPa
Rain
since 9 am
mm
Dir
 
Spd
km/h
Gust
km/h
Spd
kts
Gust
kts
03/11:30pm 17.7 15.2 9.8 60 4.2 E 13 26 7 14 1022.2 1021.0 0.0
03/11:00pm 18.6 15.6 9.4 55 4.9 E 15 28 8 15 1022.1 1020.9 0.0
03/10:30pm 19.4 16.3 9.0 51 5.5 E 15 24 8 13 1022.0 1020.7 0.0
03/10:00pm 20.2 18.0 9.2 49 5.9 ESE 11 20 6 11 1021.9 1020.6 0.0
03/09:30pm 20.9 17.9 9.2 47 6.3 ESE 15 24 8 13 1021.8 1020.5 0.0
03/09:00pm 21.7 17.9 8.9 44 6.9 E 19 26 10 14 1021.2 1019.9 0.0
03/08:30pm 22.6 18.6 8.3 40 7.6 ESE 19 35 10 19 1020.7 1019.4 0.0
03/08:00pm 23.4 20.3 7.1 35 8.5 ESE 13 22 7 12 1020.2 1018.9 0.0
03/07:30pm 24.0 21.1 6.7 33 9.1 ESE 11 15 6 8 1020.0 1018.7 0.0
03/07:00pm 25.0 21.8 6.7 31 9.6 E 13 20 7 11 1019.7 1018.4 0.0
03/06:30pm 26.1 22.5 6.7 29 10.3 ESE 15 22 8 12 1019.6 1018.3 0.0
03/06:00pm 26.7 22.4 7.2 29 10.4 S 19 39 10 21 1019.4 1018.1 0.0
03/05:30pm 27.4 24.4 7.8 29 10.7 S 13 22 7 12 1019.0 1017.8 0.0
03/05:00pm 27.4 23.4 6.8 27 11.0 ESE 17 28 9 15 1019.0 1017.8 0.0
03/04:30pm 27.1 23.9 7.0 28 10.8 SE 13 20 7 11 1018.9 1017.7 0.0
03/04:00pm 27.5 23.9 6.8 27 11.1 SE 15 26 8 14 1018.9 1017.7 0.0
03/03:30pm 27.2 23.7 7.1 28 10.8 SE 15 26 8 14 1019.2 1017.9 0.0
03/03:00pm 27.2 24.3 8.1 30 10.4 SW 13 20 7 11 1019.2 1017.9 0.0
03/02:30pm 26.8 23.4 7.8 30 10.3 ENE 15 32 8 17 1019.6 1018.3 0.0
03/02:00pm 25.9 22.9 7.5 31 9.9 SSE 13 32 7 17 1019.9 1018.6 0.0
03/01:30pm 26.1 23.6 8.1 32 9.8 SW 11 20 6 11 1020.2 1018.9 0.0
03/01:00pm 25.2 22.4 8.7 35 9.0 SW 13 22 7 12 1020.5 1019.2 0.0
03/12:30pm 24.2 21.2 7.8 35 8.8 SSE 13 24 7 13 1021.0 1019.7 0.0
03/12:00pm 23.5 19.3 8.4 38 8.1 SSW 20 30 11 16 1021.4 1020.1 0.0
03/11:30am 22.2 20.8 9.0 43 7.1 SW 6 13 3 7 1022.0 1020.7 0.0
03/11:00am 21.9 20.0 9.1 44 6.9 NNW 9 13 5 7 1022.3 1021.1 0.0

Other Formats:

Comma delimited format used in spreadsheet applications
http://www.bom.gov.au/fwo/IDW60801/IDW60801.95642.axf

JavaScript Object Notation format (JSON) in row-major order
http://www.bom.gov.au/fwo/IDW60801/IDW60801.95642.json